TAF LFQQ
LFQQ 280500Z 2806/2912 32010KT 9999 BKN025 TEMPO 2806/2816 3000 SHRA BKN012 BKN025CB TEMPO 2816/2822 1500 SNRA BKN005 BKN025CB PROB30 TEMPO 2816/2823 0600 SN FG OVC002 BECMG 2823/2902 VRB03KT 2000 BR OVC003 PROB40 2901/2906 0300 FZFG VV/// BECMG 2906/2908 26010KT 9999 NSW SCT020 TEMPO 2908/2911 3000 SHRA BKN013TCU=
METAR LFQQ
LFQQ 280900Z AUTO 32009KT 9999 -RA FEW010/// SCT019/// OVC025/// ///CB 04/03 Q0999 TEMPO 3000 SHRA BKN012 BKN025CB=
LFQQ 280830Z AUTO 29011KT 9999 -RA SCT011/// BKN017/// BKN024/// ///CB 05/04 Q0999 TEMPO 3000 SHRA BKN012 BKN025CB=
LFQQ 280800Z AUTO 32006KT 9999 SCT033/// BKN056/// BKN068/// ///TCU 04/03 Q0999 TEMPO 3000 SHRA BKN012 BKN025CB=
LFQQ 280730Z AUTO 33010KT 9999 -RA FEW013/// BKN027/// BKN038/// ///TCU 04/03 Q0998 TEMPO 3000 SHRA BKN012 BKN025CB=
LFQQ 280700Z AUTO 30006KT 9999 -RA FEW020/// SCT031/// BKN043/// ///TCU 04/04 Q0998 TEMPO 3000 SHRA BKN012 BKN025CB=
WC LFQQ
WS LFQQ
WV LFQQ